EGUN - Mildenhall Royal AFB
Distance from station: E 5mi, 14km
Updated: 06/19/2018 6:56am
Mostly Cloudy
Mostly Cloudy
 Wind from SSW
Wind: SSW 12 mph , 19 km/h
Temperature: 75°F , 24°C
Dew Point: 63°F , 17°C
Humidity: 65%
Barometer: 30.15 inHg , 1021 hPa
Clouds: Mostly Cloudy
Visibility: 6 miles , 10 km
Cloud details: Mostly Cloudy 3800 ft
Mostly Cloudy 4600 ft
2018/06/19 13:56 EGUN 191356Z AUTO 21010KT 9999 BKN038 BKN046 24/17 A3015 RMK AO2 RAE1259RAB06E27 SLP213 P0000 T02370172 $